createdAt,value
2019-05-22T00:01:48.106Z,12.60
2019-05-22T00:04:18.159Z,12.65
2019-05-22T00:06:48.036Z,12.58
2019-05-22T00:09:24.291Z,12.80
2019-05-22T00:11:53.547Z,12.73
2019-05-22T00:14:24.071Z,12.66
2019-05-22T00:16:54.243Z,12.60
2019-05-22T00:19:24.228Z,12.69
2019-05-22T00:21:54.343Z,12.79
2019-05-22T00:24:25.299Z,12.69
2019-05-22T00:26:55.556Z,12.63
2019-05-22T00:29:25.302Z,12.58
2019-05-22T00:31:54.726Z,12.65
2019-05-22T00:34:23.980Z,12.58
2019-05-22T00:36:52.656Z,12.61
2019-05-22T00:39:22.285Z,12.63
2019-05-22T00:41:51.670Z,12.42
2019-05-22T00:44:21.203Z,12.28
2019-05-22T00:46:50.420Z,12.35
2019-05-22T00:49:20.484Z,12.28
2019-05-22T00:51:54.774Z,12.31
2019-05-22T00:54:26.081Z,12.09
2019-05-22T00:56:56.290Z,12.01
2019-05-22T00:59:42.735Z,12.10
2019-05-22T01:02:14.230Z,12.23
2019-05-22T01:04:43.302Z,12.11
2019-05-22T01:07:20.563Z,12.04
2019-05-22T01:09:51.763Z,12.08
2019-05-22T01:12:29.628Z,12.04
2019-05-22T01:15:05.001Z,12.24
2019-05-22T01:17:36.463Z,12.08
2019-05-22T01:20:09.517Z,11.98
2019-05-22T01:22:39.370Z,11.91
2019-05-22T01:25:10.462Z,12.15
2019-05-22T01:27:41.452Z,12.05
2019-05-22T01:30:12.157Z,12.17
2019-05-22T01:32:45.029Z,12.23
2019-05-22T01:35:14.014Z,12.02
2019-05-22T01:37:44.274Z,11.91
2019-05-22T01:40:33.341Z,11.78
2019-05-22T01:43:03.513Z,11.81
2019-05-22T01:45:33.509Z,11.98
2019-05-22T01:48:06.235Z,12.04
2019-05-22T01:50:44.344Z,11.88
2019-05-22T01:53:16.032Z,11.93
2019-05-22T01:55:45.688Z,11.70
2019-05-22T01:58:15.615Z,11.78
2019-05-22T02:00:44.193Z,11.67
2019-05-22T02:03:14.228Z,11.61
2019-05-22T02:05:43.124Z,11.62
2019-05-22T02:08:11.660Z,11.85
2019-05-22T02:10:42.117Z,11.58
2019-05-22T02:13:14.108Z,11.63
2019-05-22T02:15:43.449Z,11.48
2019-05-22T02:18:17.677Z,11.60
2019-05-22T02:20:46.354Z,11.74
2019-05-22T02:23:15.006Z,11.68
2019-05-22T02:25:43.477Z,11.71
2019-05-22T02:28:12.469Z,11.87
2019-05-22T02:30:43.074Z,11.86
2019-05-22T02:33:13.901Z,11.87
2019-05-22T02:35:42.445Z,11.73
2019-05-22T02:38:12.182Z,11.65
2019-05-22T02:40:43.691Z,11.76
2019-05-22T02:43:12.714Z,11.81
2019-05-22T02:45:41.329Z,12.00
2019-05-22T02:48:11.083Z,12.13
2019-05-22T02:50:39.860Z,12.13
2019-05-22T02:53:11.593Z,11.94
2019-05-22T02:55:40.460Z,11.96
2019-05-22T02:58:10.562Z,11.86
2019-05-22T03:00:44.795Z,11.93
2019-05-22T03:03:13.781Z,12.01
2019-05-22T03:05:42.422Z,12.02
2019-05-22T03:08:10.891Z,12.02
2019-05-22T03:10:39.254Z,12.01
2019-05-22T03:13:08.659Z,11.90
2019-05-22T03:15:37.055Z,11.87
2019-05-22T03:18:08.506Z,11.90
2019-05-22T03:20:40.200Z,11.98
2019-05-22T03:23:32.813Z,11.98
2019-05-22T03:26:01.892Z,11.94
2019-05-22T03:28:31.259Z,12.17
2019-05-22T03:31:00.375Z,12.25
2019-05-22T03:33:29.324Z,12.19
2019-05-22T03:36:09.640Z,12.00
2019-05-22T03:38:40.168Z,11.87
2019-05-22T03:41:10.870Z,11.97
2019-05-22T03:43:41.092Z,11.84
2019-05-22T03:46:33.176Z,12.09
2019-05-22T03:49:01.825Z,12.03
2019-05-22T03:51:31.241Z,11.95
2019-05-22T03:54:00.325Z,12.03
2019-05-22T03:56:30.250Z,12.23
2019-05-22T03:58:59.344Z,12.31
2019-05-22T04:01:29.017Z,12.19
2019-05-22T04:03:59.079Z,12.19
2019-05-22T04:06:27.541Z,11.99
2019-05-22T04:08:57.991Z,11.99
2019-05-22T04:11:30.018Z,11.90
2019-05-22T04:13:58.710Z,11.78
2019-05-22T04:16:27.584Z,11.89
2019-05-22T04:18:57.743Z,11.87
2019-05-22T04:21:26.210Z,12.10
2019-05-22T04:23:54.798Z,11.82
2019-05-22T04:26:24.420Z,11.86
2019-05-22T04:28:55.650Z,11.86
2019-05-22T04:31:33.040Z,11.83
2019-05-22T04:34:01.522Z,12.00
2019-05-22T04:36:29.939Z,12.01
2019-05-22T04:39:00.576Z,11.96
2019-05-22T04:41:30.051Z,11.77
2019-05-22T04:43:58.461Z,11.93
2019-05-22T04:46:27.142Z,11.89
2019-05-22T04:48:55.560Z,11.94
2019-05-22T04:51:26.979Z,11.98
2019-05-22T04:53:56.268Z,11.93
2019-05-22T04:56:25.854Z,11.79
2019-05-22T04:58:54.653Z,11.84
2019-05-22T05:01:23.774Z,11.91
2019-05-22T05:03:52.258Z,11.99
2019-05-22T05:06:22.331Z,11.96
2019-05-22T05:08:51.176Z,12.01
2019-05-22T05:11:20.531Z,11.86
2019-05-22T05:13:49.012Z,11.80
2019-05-22T05:16:18.178Z,11.93
2019-05-22T05:18:46.586Z,11.91
2019-05-22T05:21:15.072Z,11.88
2019-05-22T05:23:43.885Z,11.91
2019-05-22T05:26:12.301Z,12.05
2019-05-22T05:28:41.243Z,12.16
2019-05-22T05:31:11.450Z,12.00
2019-05-22T05:34:09.631Z,11.98
2019-05-22T05:36:38.379Z,12.07
2019-05-22T05:39:10.514Z,12.04
2019-05-22T05:41:38.917Z,11.87
2019-05-22T05:44:07.699Z,11.75
2019-05-22T05:46:36.288Z,11.92
2019-05-22T05:49:05.129Z,12.05
2019-05-22T05:51:36.328Z,12.03
2019-05-22T05:54:09.542Z,12.01
2019-05-22T05:56:40.779Z,11.75
2019-05-22T05:59:10.453Z,11.62
2019-05-22T06:01:46.291Z,11.75
2019-05-22T06:04:33.393Z,11.67
2019-05-22T06:07:00.270Z,11.85
2019-05-22T06:09:28.226Z,11.95
2019-05-22T06:11:59.321Z,12.00
2019-05-22T06:14:33.676Z,11.87
2019-05-22T06:17:23.488Z,11.69
2019-05-22T06:19:59.037Z,11.88
2019-05-22T06:22:29.111Z,11.87
2019-05-22T06:25:01.487Z,11.84
2019-05-22T06:27:42.848Z,11.67
2019-05-22T06:30:21.486Z,11.67
2019-05-22T06:33:08.637Z,11.60
2019-05-22T06:35:38.578Z,11.68
2019-05-22T06:38:27.959Z,11.67
2019-05-22T06:40:56.995Z,11.77
2019-05-22T06:43:30.119Z,11.64
2019-05-22T06:45:58.610Z,11.80
2019-05-22T06:48:27.418Z,11.73
2019-05-22T06:50:57.007Z,11.62
2019-05-22T06:53:26.290Z,11.79
2019-05-22T06:55:54.783Z,11.56
2019-05-22T06:58:23.365Z,11.46
2019-05-22T07:00:52.009Z,11.57
2019-05-22T07:03:20.599Z,11.70
2019-05-22T07:05:50.225Z,11.76
2019-05-22T07:08:19.586Z,11.80
2019-05-22T07:10:48.866Z,11.88
2019-05-22T07:13:18.125Z,11.67
2019-05-22T07:15:50.099Z,11.67
2019-05-22T07:18:19.923Z,11.69
2019-05-22T07:20:49.437Z,11.80
2019-05-22T07:23:20.684Z,11.57
2019-05-22T07:25:49.835Z,11.66
2019-05-22T07:28:20.064Z,11.73
2019-05-22T07:30:49.295Z,11.90
2019-05-22T07:33:19.689Z,11.93
2019-05-22T07:36:07.965Z,11.96
2019-05-22T07:38:19.986Z,11.91
2019-05-22T07:40:50.530Z,11.87
2019-05-22T07:43:19.779Z,11.87
2019-05-22T07:45:48.254Z,12.02
2019-05-22T07:48:17.990Z,12.09
2019-05-22T07:50:48.681Z,12.10
2019-05-22T07:53:17.524Z,12.21
2019-05-22T07:55:46.640Z,12.26
2019-05-22T07:58:16.709Z,12.25
2019-05-22T08:00:49.008Z,12.42
2019-05-22T08:03:17.585Z,12.49
2019-05-22T08:05:51.746Z,12.46
2019-05-22T08:08:22.355Z,12.53
2019-05-22T08:10:51.935Z,12.31
2019-05-22T08:13:20.865Z,12.17
2019-05-22T08:15:49.270Z,12.28
2019-05-22T08:18:18.051Z,12.17
2019-05-22T08:20:46.531Z,12.17
2019-05-22T08:23:15.810Z,12.18
2019-05-22T08:25:44.224Z,11.98
2019-05-22T08:28:13.579Z,11.93
2019-05-22T08:30:42.187Z,12.05
2019-05-22T08:33:14.115Z,12.19
2019-05-22T08:35:42.865Z,12.36
2019-05-22T08:38:12.330Z,12.40
2019-05-22T08:40:41.024Z,12.51
2019-05-22T08:43:10.329Z,12.69
2019-05-22T08:45:38.818Z,12.43
2019-05-22T08:48:07.767Z,12.41
2019-05-22T08:50:37.544Z,12.43
2019-05-22T08:53:06.986Z,12.42
2019-05-22T08:55:36.138Z,12.45
2019-05-22T08:58:05.814Z,12.38
2019-05-22T09:00:34.724Z,12.67
2019-05-22T09:03:03.182Z,12.50
2019-05-22T09:05:32.289Z,12.54
2019-05-22T09:08:00.768Z,12.44
2019-05-22T09:10:29.625Z,12.45
2019-05-22T09:12:58.025Z,12.52
2019-05-22T09:15:26.518Z,12.78
2019-05-22T09:17:55.062Z,12.80
2019-05-22T09:20:23.906Z,12.91
2019-05-22T09:22:52.912Z,12.91
2019-05-22T09:25:21.591Z,12.78
2019-05-22T09:27:50.441Z,12.59
2019-05-22T09:30:20.445Z,12.55
2019-05-22T09:32:48.848Z,12.53
2019-05-22T09:35:17.411Z,12.50
2019-05-22T09:37:45.899Z,12.71
2019-05-22T09:40:14.831Z,12.76
2019-05-22T09:42:43.415Z,12.56
2019-05-22T09:45:12.331Z,12.66
2019-05-22T09:47:40.994Z,12.83
2019-05-22T09:50:11.017Z,12.76
2019-05-22T09:52:56.336Z,12.64
2019-05-22T09:55:14.229Z,12.71
2019-05-22T09:57:42.659Z,12.72
2019-05-22T10:00:13.070Z,12.64
2019-05-22T10:02:42.065Z,12.72
2019-05-22T10:05:11.174Z,12.74
2019-05-22T10:07:57.190Z,12.96
2019-05-22T10:10:11.668Z,13.13
2019-05-22T10:12:40.078Z,13.34
2019-05-22T10:15:10.696Z,13.43
2019-05-22T10:17:42.316Z,13.82
2019-05-22T10:20:12.441Z,14.04
2019-05-22T10:22:40.839Z,14.25
2019-05-22T10:25:16.641Z,14.47
2019-05-22T10:27:41.052Z,14.45
2019-05-22T10:30:13.837Z,14.50
2019-05-22T10:32:42.249Z,14.51
2019-05-22T10:35:12.254Z,14.46
2019-05-22T10:37:41.704Z,14.46
2019-05-22T10:40:11.563Z,14.64
2019-05-22T10:42:44.370Z,14.81
2019-05-22T10:45:10.996Z,15.10
2019-05-22T10:47:39.706Z,15.40
2019-05-22T10:50:08.529Z,15.56
2019-05-22T10:52:37.284Z,15.26
2019-05-22T10:55:07.866Z,15.36
2019-05-22T10:57:40.441Z,15.27
2019-05-22T11:00:12.899Z,15.06
2019-05-22T11:02:41.752Z,14.93
2019-05-22T11:05:10.383Z,14.84
2019-05-22T11:07:39.005Z,14.95
2019-05-22T11:10:08.499Z,15.23
2019-05-22T11:12:37.341Z,15.51
2019-05-22T11:15:08.525Z,15.63
2019-05-22T11:17:38.045Z,15.86
2019-05-22T11:20:12.155Z,15.76
2019-05-22T11:22:40.570Z,15.77
2019-05-22T11:25:11.083Z,15.70
2019-05-22T11:27:40.329Z,15.54
2019-05-22T11:30:11.372Z,15.50
2019-05-22T11:32:40.250Z,15.59
2019-05-22T11:35:10.171Z,16.00
2019-05-22T11:37:39.349Z,16.52
2019-05-22T11:40:09.047Z,17.06
2019-05-22T11:42:38.601Z,17.10
2019-05-22T11:45:11.712Z,16.93
2019-05-22T11:47:40.955Z,16.79
2019-05-22T11:50:11.996Z,16.84
2019-05-22T11:52:40.984Z,17.06
2019-05-22T11:55:10.918Z,17.32
2019-05-22T11:57:41.302Z,17.29
2019-05-22T12:00:10.643Z,17.05
2019-05-22T12:02:39.460Z,17.35
2019-05-22T12:05:10.354Z,17.21
2019-05-22T12:07:43.344Z,17.42
2019-05-22T12:10:13.918Z,17.47
2019-05-22T12:12:42.471Z,17.35
2019-05-22T12:15:12.386Z,17.23
2019-05-22T12:17:41.496Z,17.25
2019-05-22T12:20:12.358Z,17.55
2019-05-22T12:22:41.395Z,17.70
2019-05-22T12:25:12.222Z,17.64
2019-05-22T12:27:40.696Z,17.38
2019-05-22T12:30:11.427Z,17.58
2019-05-22T12:32:40.687Z,17.75
2019-05-22T12:35:11.696Z,17.85
2019-05-22T12:37:41.546Z,17.94
2019-05-22T12:40:13.170Z,18.18
2019-05-22T12:42:41.786Z,17.82
2019-05-22T12:45:12.792Z,17.58
2019-05-22T12:47:43.012Z,17.34
2019-05-22T12:50:14.885Z,17.32
2019-05-22T12:52:46.344Z,17.34
2019-05-22T12:55:15.583Z,17.44
2019-05-22T12:57:44.177Z,17.47
2019-05-22T13:00:12.993Z,17.40
2019-05-22T13:02:42.673Z,17.41
2019-05-22T13:05:14.525Z,17.66
2019-05-22T13:07:41.915Z,17.67
2019-05-22T13:10:10.765Z,17.73
2019-05-22T13:12:39.244Z,17.65
2019-05-22T13:15:10.617Z,17.63
2019-05-22T13:17:39.199Z,17.86
2019-05-22T13:20:08.099Z,18.22
2019-05-22T13:22:38.018Z,18.15
2019-05-22T13:25:09.396Z,18.44
2019-05-22T13:27:39.448Z,18.69
2019-05-22T13:30:10.964Z,18.55
2019-05-22T13:32:42.154Z,18.49
2019-05-22T13:35:12.664Z,18.44
2019-05-22T13:37:41.316Z,18.57
2019-05-22T13:40:26.678Z,18.71
2019-05-22T13:42:41.193Z,19.11
2019-05-22T13:45:27.858Z,19.30
2019-05-22T13:47:43.060Z,19.29
2019-05-22T13:50:13.905Z,19.19
2019-05-22T13:52:43.932Z,19.16
2019-05-22T13:55:12.563Z,19.29
2019-05-22T13:57:41.245Z,19.17
2019-05-22T14:00:12.762Z,19.27
2019-05-22T14:02:41.237Z,19.24
2019-05-22T14:05:13.653Z,18.80
2019-05-22T14:07:40.733Z,18.57
2019-05-22T14:10:09.639Z,18.56
2019-05-22T14:12:38.596Z,18.80
2019-05-22T14:15:08.282Z,18.62
2019-05-22T14:17:37.364Z,18.60
2019-05-22T14:20:06.620Z,18.79
2019-05-22T14:22:35.096Z,18.73
2019-05-22T14:25:04.937Z,18.46
2019-05-22T14:27:33.400Z,18.55
2019-05-22T14:30:02.054Z,18.74
2019-05-22T14:32:30.724Z,19.05
2019-05-22T14:34:59.309Z,19.25
2019-05-22T14:37:28.044Z,19.22
2019-05-22T14:39:56.531Z,19.25
2019-05-22T14:42:25.665Z,19.45
2019-05-22T14:44:54.141Z,19.64
2019-05-22T14:47:22.697Z,19.69
2019-05-22T14:49:51.154Z,19.28
2019-05-22T14:52:20.034Z,19.11
2019-05-22T14:54:49.377Z,18.93
2019-05-22T14:57:17.843Z,18.71
2019-05-22T14:59:46.516Z,18.50
2019-05-22T15:02:15.350Z,18.37
2019-05-22T15:04:44.209Z,18.69
2019-05-22T15:07:12.729Z,18.98
2019-05-22T15:09:41.421Z,19.38
2019-05-22T15:12:10.172Z,19.50
2019-05-22T15:14:38.663Z,19.39
2019-05-22T15:17:07.382Z,19.40
2019-05-22T15:19:36.389Z,19.43
2019-05-22T15:22:07.332Z,19.04
2019-05-22T15:24:35.743Z,19.03
2019-05-22T15:27:05.477Z,18.86
2019-05-22T15:29:33.953Z,18.61
2019-05-22T15:32:02.622Z,18.60
2019-05-22T15:34:32.905Z,18.63
2019-05-22T15:37:01.759Z,18.80
2019-05-22T15:39:32.771Z,19.02
2019-05-22T15:42:04.579Z,19.11
2019-05-22T15:44:33.519Z,19.20
2019-05-22T15:47:01.918Z,19.22
2019-05-22T15:49:31.537Z,19.52
2019-05-22T15:52:00.857Z,19.66
2019-05-22T15:54:30.704Z,19.92
2019-05-22T15:57:01.289Z,20.11
2019-05-22T15:59:30.038Z,20.10
2019-05-22T16:01:59.914Z,19.92
2019-05-22T16:04:29.261Z,19.91
2019-05-22T16:06:58.824Z,20.04
2019-05-22T16:09:28.174Z,20.17
2019-05-22T16:11:56.942Z,20.43
2019-05-22T16:14:27.603Z,20.21
2019-05-22T16:16:57.893Z,19.94
2019-05-22T16:19:28.205Z,20.44
2019-05-22T16:21:59.709Z,20.61
2019-05-22T16:24:28.720Z,20.77
2019-05-22T16:26:57.188Z,20.64
2019-05-22T16:29:26.132Z,20.68
2019-05-22T16:31:56.199Z,20.25
2019-05-22T16:34:28.177Z,20.01
2019-05-22T16:36:55.303Z,20.25
2019-05-22T16:39:23.877Z,19.99
2019-05-22T16:41:53.319Z,19.73
2019-05-22T16:44:22.075Z,19.75
2019-05-22T16:46:51.239Z,19.66
2019-05-22T16:49:19.726Z,19.26
2019-05-22T16:51:48.635Z,19.09
2019-05-22T16:54:20.768Z,19.07
2019-05-22T16:56:48.000Z,19.21
2019-05-22T16:59:17.968Z,19.21
2019-05-22T17:01:58.704Z,18.97
2019-05-22T17:04:16.728Z,18.87
2019-05-22T17:06:45.990Z,18.86
2019-05-22T17:09:16.409Z,19.11
2019-05-22T17:11:45.972Z,19.50
2019-05-22T17:14:15.569Z,19.73
2019-05-22T17:16:44.612Z,19.80
2019-05-22T17:19:26.369Z,19.61
2019-05-22T17:21:44.554Z,19.23
2019-05-22T17:24:14.969Z,19.03
2019-05-22T17:26:43.594Z,19.02
2019-05-22T17:29:12.560Z,18.97
2019-05-22T17:31:41.120Z,18.57
2019-05-22T17:34:11.158Z,18.57
2019-05-22T17:36:40.308Z,18.39
2019-05-22T17:39:09.804Z,18.30
2019-05-22T17:41:41.279Z,18.33
2019-05-22T17:44:12.118Z,18.35
2019-05-22T17:46:44.449Z,18.16
2019-05-22T17:49:13.857Z,17.80
2019-05-22T17:51:43.574Z,17.83
2019-05-22T17:54:12.208Z,17.50
2019-05-22T17:56:41.153Z,17.56
2019-05-22T17:59:09.583Z,17.55
2019-05-22T18:01:38.408Z,17.42
2019-05-22T18:04:06.796Z,17.32
2019-05-22T18:06:35.355Z,17.42
2019-05-22T18:09:04.761Z,17.26
2019-05-22T18:11:33.346Z,17.26
2019-05-22T18:14:03.364Z,17.20
2019-05-22T18:16:32.520Z,17.38
2019-05-22T18:19:01.098Z,17.40
2019-05-22T18:21:29.846Z,17.33
2019-05-22T18:23:58.478Z,17.39
2019-05-22T18:26:27.576Z,17.12
2019-05-22T18:28:56.268Z,17.05
2019-05-22T18:31:24.881Z,17.13
2019-05-22T18:33:53.298Z,17.09
2019-05-22T18:36:21.710Z,17.02
2019-05-22T18:38:50.111Z,16.85
2019-05-22T18:41:18.586Z,16.96
2019-05-22T18:43:47.053Z,17.09
2019-05-22T18:46:15.464Z,17.07
2019-05-22T18:48:44.028Z,17.15
2019-05-22T18:51:12.779Z,17.05
2019-05-22T18:53:41.191Z,17.11
2019-05-22T18:56:11.061Z,17.01
2019-05-22T18:58:39.959Z,17.13
2019-05-22T19:01:08.617Z,17.05
2019-05-22T19:03:37.367Z,17.00
2019-05-22T19:06:05.913Z,16.69
2019-05-22T19:08:34.388Z,16.75
2019-05-22T19:11:02.800Z,16.73
2019-05-22T19:13:31.192Z,16.69
2019-05-22T19:15:59.683Z,16.57
2019-05-22T19:18:28.253Z,16.52
2019-05-22T19:20:56.767Z,16.48
2019-05-22T19:23:25.373Z,16.32
2019-05-22T19:25:53.789Z,16.21
2019-05-22T19:28:22.571Z,16.21
2019-05-22T19:30:50.987Z,16.12
2019-05-22T19:33:19.447Z,16.09
2019-05-22T19:35:48.214Z,15.99
2019-05-22T19:38:16.712Z,15.79
2019-05-22T19:40:47.766Z,15.77
2019-05-22T19:43:16.606Z,15.75
2019-05-22T19:45:45.008Z,15.72
2019-05-22T19:48:14.335Z,15.67
2019-05-22T19:50:44.002Z,15.56
2019-05-22T19:53:18.693Z,15.51
2019-05-22T19:55:44.150Z,15.44
2019-05-22T19:58:12.808Z,15.41
2019-05-22T20:00:41.375Z,15.43
2019-05-22T20:03:09.784Z,15.20
2019-05-22T20:05:38.349Z,15.19
2019-05-22T20:08:07.708Z,15.17
2019-05-22T20:10:36.270Z,15.02
2019-05-22T20:13:06.321Z,14.74
2019-05-22T20:15:34.804Z,14.69
2019-05-22T20:18:03.206Z,14.62
2019-05-22T20:20:31.668Z,14.59
2019-05-22T20:23:00.660Z,14.55
2019-05-22T20:25:29.445Z,14.56
2019-05-22T20:27:59.390Z,14.43
2019-05-22T20:30:28.046Z,14.26
2019-05-22T20:32:57.468Z,14.31
2019-05-22T20:35:26.782Z,14.24
2019-05-22T20:37:55.324Z,14.16
2019-05-22T20:40:24.963Z,14.07
2019-05-22T20:42:53.843Z,14.02
2019-05-22T20:45:24.833Z,14.02
2019-05-22T20:48:07.906Z,13.91
2019-05-22T20:50:37.136Z,13.87
2019-05-22T20:53:07.256Z,13.83
2019-05-22T20:55:36.997Z,13.75
2019-05-22T20:58:08.176Z,13.67
2019-05-22T21:00:36.767Z,13.30
2019-05-22T21:03:06.113Z,13.31
2019-05-22T21:05:36.042Z,13.35
2019-05-22T21:08:12.247Z,13.38
2019-05-22T21:10:43.720Z,13.32
2019-05-22T21:13:14.058Z,13.26
2019-05-22T21:15:42.440Z,13.17
2019-05-22T21:18:12.562Z,13.14
2019-05-22T21:20:54.155Z,13.15
2019-05-22T21:23:13.134Z,13.09
2019-05-22T21:25:41.540Z,13.06
2019-05-22T21:28:09.946Z,12.93
2019-05-22T21:30:38.596Z,12.73
2019-05-22T21:33:08.215Z,12.71
2019-05-22T21:35:37.256Z,12.67
2019-05-22T21:38:06.112Z,12.60
2019-05-22T21:40:34.662Z,12.68
2019-05-22T21:43:03.909Z,12.54
2019-05-22T21:45:33.275Z,12.56
2019-05-22T21:48:02.054Z,12.55
2019-05-22T21:50:31.116Z,12.42
2019-05-22T21:53:00.261Z,12.13
2019-05-22T21:55:28.906Z,12.19
2019-05-22T21:57:57.331Z,12.12
2019-05-22T22:00:42.240Z,12.01
2019-05-22T22:03:21.832Z,11.82
2019-05-22T22:05:50.247Z,11.87
2019-05-22T22:08:18.647Z,11.89
2019-05-22T22:10:47.856Z,11.90
2019-05-22T22:13:17.235Z,11.83
2019-05-22T22:15:46.027Z,11.74
2019-05-22T22:18:15.638Z,11.66
2019-05-22T22:20:44.224Z,11.65
2019-05-22T22:23:15.124Z,11.65
2019-05-22T22:25:44.010Z,11.60
2019-05-22T22:28:15.522Z,11.59
2019-05-22T22:30:46.013Z,11.53
2019-05-22T22:33:16.528Z,11.50
2019-05-22T22:35:44.935Z,11.48
2019-05-22T22:38:13.695Z,11.43
2019-05-22T22:40:43.277Z,11.46
2019-05-22T22:43:12.508Z,11.38
2019-05-22T22:45:47.410Z,11.32
2019-05-22T22:48:18.078Z,10.90
2019-05-22T22:50:47.068Z,11.03
2019-05-22T22:53:15.851Z,10.96
2019-05-22T22:55:44.921Z,10.89
2019-05-22T22:58:17.553Z,10.89
2019-05-22T23:00:46.795Z,10.91
2019-05-22T23:03:21.434Z,10.88
2019-05-22T23:05:50.022Z,10.80
2019-05-22T23:08:21.756Z,10.70
2019-05-22T23:10:50.875Z,10.40
2019-05-22T23:13:21.175Z,10.52
2019-05-22T23:15:51.527Z,10.56
2019-05-22T23:18:41.282Z,10.61
2019-05-22T23:21:09.314Z,10.60
2019-05-22T23:23:36.547Z,10.58
2019-05-22T23:26:09.662Z,10.60
2019-05-22T23:28:40.745Z,10.44
2019-05-22T23:31:09.703Z,10.50
2019-05-22T23:33:38.961Z,10.46
2019-05-22T23:36:08.776Z,10.47
2019-05-22T23:38:38.326Z,10.30
2019-05-22T23:41:07.782Z,10.28
2019-05-22T23:43:36.450Z,10.31
2019-05-22T23:46:06.324Z,10.29
2019-05-22T23:48:34.791Z,10.10
2019-05-22T23:51:04.777Z,10.14
2019-05-22T23:53:34.809Z,10.07
2019-05-22T23:56:04.669Z,10.14
2019-05-22T23:58:34.586Z,10.11
